createdAt,value
2017-06-05T00:00:00.009Z,1012.27
2017-06-05T00:01:09.916Z,1012.22
2017-06-05T00:02:19.814Z,1012.2
2017-06-05T00:03:30.035Z,1012.22
2017-06-05T00:04:39.643Z,1012.22
2017-06-05T00:05:49.241Z,1012.19
2017-06-05T00:06:59.490Z,1012.18
2017-06-05T00:08:09.405Z,1012.18
2017-06-05T00:09:19.006Z,1012.2
2017-06-05T00:10:28.604Z,1012.19
2017-06-05T00:11:38.662Z,1012.22
2017-06-05T00:12:48.571Z,1012.16
2017-06-05T00:13:57.858Z,1012.17
2017-06-05T00:15:07.751Z,1012.2
2017-06-05T00:16:17.654Z,1012.19
2017-06-05T00:17:27.555Z,1012.13
2017-06-05T00:18:36.233Z,1012.09
2017-06-05T00:19:46.147Z,1012.07
2017-06-05T00:20:56.367Z,1012.07
2017-06-05T00:22:05.973Z,1012.07
2017-06-05T00:23:15.263Z,1012.07
2017-06-05T00:24:24.862Z,1012.09
2017-06-05T00:25:34.154Z,1012.08
2017-06-05T00:26:44.070Z,1012.06
2017-06-05T00:27:53.378Z,1012.08
2017-06-05T00:29:03.137Z,1012.1
2017-06-05T00:30:13.046Z,1012.05
2017-06-05T00:31:22.961Z,1012.07
2017-06-05T00:32:32.863Z,1012.06
2017-06-05T00:33:42.761Z,1012.07
2017-06-05T00:34:52.516Z,1012.07
2017-06-05T00:36:02.740Z,1012.05
2017-06-05T00:37:12.698Z,1012.04
2017-06-05T00:38:22.620Z,1012.03
2017-06-05T00:39:32.834Z,1012
2017-06-05T00:40:42.741Z,1011.98
2017-06-05T00:41:52.672Z,1011.97
2017-06-05T00:43:01.965Z,1011.94
2017-06-05T00:44:11.866Z,1011.94
2017-06-05T00:45:21.157Z,1011.95
2017-06-05T00:46:31.365Z,1011.96
2017-06-05T00:47:41.568Z,1011.97
2017-06-05T00:48:51.492Z,1011.95
2017-06-05T00:50:00.794Z,1011.97
2017-06-05T00:51:10.713Z,1011.95
2017-06-05T00:52:20.466Z,1011.91
2017-06-05T00:53:30.384Z,1011.89
2017-06-05T00:54:39.401Z,1011.9
2017-06-05T00:55:49.007Z,1011.88
2017-06-05T00:56:58.302Z,1011.87
2017-06-05T00:58:08.370Z,1011.9
2017-06-05T00:59:18.588Z,1011.87
2017-06-05T01:00:28.222Z,1011.85
2017-06-05T01:01:38.431Z,1011.87
2017-06-05T01:02:48.334Z,1011.82
2017-06-05T01:03:58.276Z,1011.82
2017-06-05T01:05:07.886Z,1011.83
2017-06-05T01:06:17.183Z,1011.82
2017-06-05T01:07:26.787Z,1011.8
2017-06-05T01:08:36.696Z,1011.79
2017-06-05T01:09:47.072Z,1011.81
2017-06-05T01:10:57.286Z,1011.78
2017-06-05T01:12:07.181Z,1011.81
2017-06-05T01:13:16.784Z,1011.78
2017-06-05T01:14:26.390Z,1011.71
2017-06-05T01:15:36.439Z,1011.75
2017-06-05T01:16:46.336Z,1011.77
2017-06-05T01:17:56.554Z,1011.79
2017-06-05T01:19:06.153Z,1011.79
2017-06-05T01:20:15.761Z,1011.8
2017-06-05T01:21:25.211Z,1011.81
2017-06-05T01:22:35.117Z,1011.82
2017-06-05T01:23:45.032Z,1011.85
2017-06-05T01:24:55.260Z,1011.81
2017-06-05T01:26:05.465Z,1011.83
2017-06-05T01:27:15.727Z,1011.82
2017-06-05T01:28:25.028Z,1011.82
2017-06-05T01:29:34.643Z,1011.84
2017-06-05T01:30:44.853Z,1011.89
2017-06-05T01:31:54.771Z,1011.85
2017-06-05T01:33:04.075Z,1011.86
2017-06-05T01:34:14.285Z,1011.87
2017-06-05T01:35:23.893Z,1011.83
2017-06-05T01:36:34.098Z,1011.84
2017-06-05T01:37:43.699Z,1011.86
2017-06-05T01:38:53.448Z,1011.86
2017-06-05T01:40:03.379Z,1011.82
2017-06-05T01:41:13.309Z,1011.84
2017-06-05T01:42:23.212Z,1011.8
2017-06-05T01:43:33.120Z,1011.83
2017-06-05T01:44:43.029Z,1011.83
2017-06-05T01:45:52.934Z,1011.83
2017-06-05T01:47:03.136Z,1011.83
2017-06-05T01:48:12.756Z,1011.81
2017-06-05T01:49:22.049Z,1011.82
2017-06-05T01:50:31.376Z,1011.84
2017-06-05T01:51:41.272Z,1011.85
2017-06-05T01:52:51.178Z,1011.82
2017-06-05T01:54:01.394Z,1011.81
2017-06-05T01:55:11.293Z,1011.82
2017-06-05T01:56:21.200Z,1011.83
2017-06-05T01:57:31.104Z,1011.79
2017-06-05T01:58:41.014Z,1011.76
2017-06-05T01:59:50.932Z,1011.81
2017-06-05T02:01:00.843Z,1011.78
2017-06-05T02:02:10.745Z,1011.73
2017-06-05T02:03:20.663Z,1011.75
2017-06-05T02:04:31.235Z,1011.76
2017-06-05T02:05:41.444Z,1011.75
2017-06-05T02:06:51.033Z,1011.74
2017-06-05T02:08:00.639Z,1011.7
2017-06-05T02:09:10.537Z,1011.73
2017-06-05T02:10:20.437Z,1011.74
2017-06-05T02:11:30.030Z,1011.75
2017-06-05T02:12:39.937Z,1011.72
2017-06-05T02:13:49.841Z,1011.72
2017-06-05T02:14:59.139Z,1011.7
2017-06-05T02:16:09.053Z,1011.68
2017-06-05T02:17:18.678Z,1011.67
2017-06-05T02:18:28.899Z,1011.68
2017-06-05T02:19:38.555Z,1011.67
2017-06-05T02:20:48.450Z,1011.71
2017-06-05T02:21:58.681Z,1011.71
2017-06-05T02:23:08.280Z,1011.73
2017-06-05T02:24:17.574Z,1011.69
2017-06-05T02:25:27.795Z,1011.71
2017-06-05T02:26:37.703Z,1011.7
2017-06-05T02:27:47.945Z,1011.71
2017-06-05T02:28:57.855Z,1011.68
2017-06-05T02:30:08.063Z,1011.71
2017-06-05T02:31:17.710Z,1011.68
2017-06-05T02:32:27.622Z,1011.69
2017-06-05T02:33:36.919Z,1011.7
2017-06-05T02:34:46.847Z,1011.67
2017-06-05T02:35:57.059Z,1011.66
2017-06-05T02:37:07.292Z,1011.68
2017-06-05T02:38:16.893Z,1011.7
2017-06-05T02:39:26.792Z,1011.67
2017-06-05T02:40:36.722Z,1011.66
2017-06-05T02:41:46.650Z,1011.68
2017-06-05T02:42:55.644Z,1011.68
2017-06-05T02:44:05.545Z,1011.67
2017-06-05T02:45:15.457Z,1011.64
2017-06-05T02:46:25.366Z,1011.65
2017-06-05T02:47:35.593Z,1011.64
2017-06-05T02:48:45.210Z,1011.65
2017-06-05T02:49:55.420Z,1011.62
2017-06-05T02:51:05.055Z,1011.62
2017-06-05T02:52:14.661Z,1011.66
2017-06-05T02:53:24.559Z,1011.67
2017-06-05T02:54:34.922Z,1011.66
2017-06-05T02:55:44.210Z,1011.64
2017-06-05T02:56:53.505Z,1011.67
2017-06-05T02:58:03.408Z,1011.66
2017-06-05T02:59:13.331Z,1011.62
2017-06-05T03:00:23.344Z,1011.64
2017-06-05T03:01:32.953Z,1011.62
2017-06-05T03:02:43.168Z,1011.58
2017-06-05T03:03:53.390Z,1011.59
2017-06-05T03:05:03.283Z,1011.59
2017-06-05T03:06:12.886Z,1011.6
2017-06-05T03:07:22.193Z,1011.59
2017-06-05T03:08:32.405Z,1011.57
2017-06-05T03:09:42.007Z,1011.62
2017-06-05T03:10:51.295Z,1011.59
2017-06-05T03:12:01.508Z,1011.6
2017-06-05T03:13:11.710Z,1011.61
2017-06-05T03:14:21.635Z,1011.61
2017-06-05T03:15:31.539Z,1011.6
2017-06-05T03:16:41.756Z,1011.59
2017-06-05T03:17:51.801Z,1011.54
2017-06-05T03:19:02.053Z,1011.57
2017-06-05T03:20:12.281Z,1011.55
2017-06-05T03:21:22.192Z,1011.59
2017-06-05T03:22:32.482Z,1011.57
2017-06-05T03:23:42.756Z,1011.56
2017-06-05T03:24:52.364Z,1011.57
2017-06-05T03:26:01.969Z,1011.55
2017-06-05T03:27:12.182Z,1011.56
2017-06-05T03:28:22.076Z,1011.54
2017-06-05T03:29:32.035Z,1011.52
2017-06-05T03:30:42.275Z,1011.52
2017-06-05T03:31:52.485Z,1011.51
2017-06-05T03:33:02.698Z,1011.51
2017-06-05T03:34:12.290Z,1011.55
2017-06-05T03:35:22.351Z,1011.58
2017-06-05T03:36:32.566Z,1011.55
2017-06-05T03:37:42.166Z,1011.55
2017-06-05T03:38:52.086Z,1011.53
2017-06-05T03:40:01.698Z,1011.56
2017-06-05T03:41:12.064Z,1011.51
2017-06-05T03:42:21.658Z,1011.52
2017-06-05T03:43:31.249Z,1011.51
2017-06-05T03:44:41.162Z,1011.5
2017-06-05T03:45:51.069Z,1011.51
2017-06-05T03:47:00.759Z,1011.45
2017-06-05T03:48:10.969Z,1011.41
2017-06-05T03:49:20.868Z,1011.42
2017-06-05T03:50:30.471Z,1011.46
2017-06-05T03:51:40.068Z,1011.44
2017-06-05T03:52:50.072Z,1011.43
2017-06-05T03:54:00.279Z,1011.46
2017-06-05T03:55:10.485Z,1011.48
2017-06-05T03:56:20.690Z,1011.49
2017-06-05T03:57:30.278Z,1011.51
2017-06-05T03:58:40.024Z,1011.53
2017-06-05T03:59:49.932Z,1011.51
2017-06-05T04:00:59.835Z,1011.51
2017-06-05T04:02:10.043Z,1011.52
2017-06-05T04:03:19.953Z,1011.52
2017-06-05T04:04:30.345Z,1011.55
2017-06-05T04:05:39.965Z,1011.56
2017-06-05T04:06:49.873Z,1011.56
2017-06-05T04:07:59.781Z,1011.53
2017-06-05T04:09:09.683Z,1011.5
2017-06-05T04:10:20.046Z,1011.55
2017-06-05T04:11:29.643Z,1011.54
2017-06-05T04:12:39.850Z,1011.56
2017-06-05T04:13:49.437Z,1011.54
2017-06-05T04:14:59.042Z,1011.54
2017-06-05T04:16:08.651Z,1011.54
2017-06-05T04:17:17.949Z,1011.58
2017-06-05T04:18:28.159Z,1011.58
2017-06-05T04:19:37.759Z,1011.57
2017-06-05T04:20:47.376Z,1011.58
2017-06-05T04:21:56.976Z,1011.61
2017-06-05T04:23:06.599Z,1011.6
2017-06-05T04:24:16.806Z,1011.6
2017-06-05T04:25:27.016Z,1011.66
2017-06-05T04:26:37.218Z,1011.59
2017-06-05T04:27:47.120Z,1011.59
2017-06-05T04:28:57.339Z,1011.61
2017-06-05T04:30:07.231Z,1011.57
2017-06-05T04:31:17.449Z,1011.59
2017-06-05T04:32:27.346Z,1011.58
2017-06-05T04:33:37.357Z,1011.61
2017-06-05T04:34:46.979Z,1011.62
2017-06-05T04:35:57.198Z,1011.64
2017-06-05T04:37:07.408Z,1011.61
2017-06-05T04:38:17.005Z,1011.67
2017-06-05T04:39:26.768Z,1011.65
2017-06-05T04:40:36.668Z,1011.66
2017-06-05T04:41:46.880Z,1011.67
2017-06-05T04:42:56.473Z,1011.65
2017-06-05T04:44:06.063Z,1011.66
2017-06-05T04:45:16.015Z,1011.68
2017-06-05T04:46:25.598Z,1011.67
2017-06-05T04:47:35.530Z,1011.64
2017-06-05T04:48:45.120Z,1011.66
2017-06-05T04:49:55.021Z,1011.65
2017-06-05T04:51:04.968Z,1011.65
2017-06-05T04:52:15.168Z,1011.66
2017-06-05T04:53:25.080Z,1011.7
2017-06-05T04:54:34.990Z,1011.67
2017-06-05T04:55:44.901Z,1011.66
2017-06-05T04:56:55.106Z,1011.67
2017-06-05T04:58:05.011Z,1011.68
2017-06-05T04:59:14.909Z,1011.62
2017-06-05T05:00:24.825Z,1011.64
2017-06-05T05:01:34.735Z,1011.62
2017-06-05T05:02:45.030Z,1011.63
2017-06-05T05:03:55.238Z,1011.59
2017-06-05T05:05:04.836Z,1011.58
2017-06-05T05:06:14.753Z,1011.58
2017-06-05T05:07:24.645Z,1011.56
2017-06-05T05:08:34.703Z,1011.56
2017-06-05T05:09:44.308Z,1011.56
2017-06-05T05:10:54.268Z,1011.56
2017-06-05T05:12:03.882Z,1011.59
2017-06-05T05:13:13.778Z,1011.55
2017-06-05T05:14:23.392Z,1011.58
2017-06-05T05:15:32.996Z,1011.58
2017-06-05T05:16:42.935Z,1011.54
2017-06-05T05:17:52.532Z,1011.58
2017-06-05T05:19:01.814Z,1011.57
2017-06-05T05:20:11.823Z,1011.59
2017-06-05T05:21:22.039Z,1011.61
2017-06-05T05:22:31.952Z,1011.58
2017-06-05T05:23:42.163Z,1011.56
2017-06-05T05:24:52.071Z,1011.57
2017-06-05T05:26:01.362Z,1011.56
2017-06-05T05:27:10.661Z,1011.57
2017-06-05T05:28:20.893Z,1011.54
2017-06-05T05:29:30.852Z,1011.5
2017-06-05T05:30:41.446Z,1011.53
2017-06-05T05:31:51.667Z,1011.49
2017-06-05T05:33:01.263Z,1011.5
2017-06-05T05:34:10.565Z,1011.49
2017-06-05T05:35:20.781Z,1011.5
2017-06-05T05:36:30.702Z,1011.44
2017-06-05T05:37:40.003Z,1011.48
2017-06-05T05:38:49.922Z,1011.43
2017-06-05T05:40:00.149Z,1011.46
2017-06-05T05:41:10.049Z,1011.42
2017-06-05T05:42:20.300Z,1011.4
2017-06-05T05:43:30.874Z,1011.39
2017-06-05T05:44:40.781Z,1011.38
2017-06-05T05:45:50.388Z,1011.36
2017-06-05T05:46:59.976Z,1011.34
2017-06-05T05:48:09.568Z,1011.38
2017-06-05T05:49:19.623Z,1011.37
2017-06-05T05:50:29.835Z,1011.34
2017-06-05T05:51:39.419Z,1011.33
2017-06-05T05:52:49.011Z,1011.32
2017-06-05T05:53:58.610Z,1011.3
2017-06-05T05:55:08.622Z,1011.31
2017-06-05T05:56:18.835Z,1011.32
2017-06-05T05:57:28.737Z,1011.33
2017-06-05T05:58:38.986Z,1011.33
2017-06-05T05:59:48.898Z,1011.33
2017-06-05T06:00:59.121Z,1011.38
2017-06-05T06:02:09.028Z,1011.37
2017-06-05T06:03:18.925Z,1011.39
2017-06-05T06:04:29.206Z,1011.38
2017-06-05T06:05:39.114Z,1011.37
2017-06-05T06:06:48.456Z,1011.38
2017-06-05T06:07:58.681Z,1011.4
2017-06-05T06:09:07.970Z,1011.41
2017-06-05T06:10:17.259Z,1011.39
2017-06-05T06:11:27.167Z,1011.4
2017-06-05T06:12:36.822Z,1011.4
2017-06-05T06:13:46.432Z,1011.42
2017-06-05T06:14:56.400Z,1011.46
2017-06-05T06:16:06.252Z,1011.42
2017-06-05T06:17:16.476Z,1011.45
2017-06-05T06:18:25.809Z,1011.46
2017-06-05T06:19:36.412Z,1011.5
2017-06-05T06:20:46.375Z,1011.41
2017-06-05T06:21:56.317Z,1011.47
2017-06-05T06:23:06.277Z,1011.45
2017-06-05T06:24:16.663Z,1011.44
2017-06-05T06:25:26.592Z,1011.43
2017-06-05T06:26:36.362Z,1011.43
2017-06-05T06:27:46.584Z,1011.46
2017-06-05T06:28:56.813Z,1011.49
2017-06-05T06:30:06.216Z,1011.42
2017-06-05T06:31:16.065Z,1011.47
2017-06-05T06:32:25.679Z,1011.46
2017-06-05T06:33:35.891Z,1011.5
2017-06-05T06:34:45.799Z,1011.53
2017-06-05T06:35:55.750Z,1011.49
2017-06-05T06:37:05.654Z,1011.51
2017-06-05T06:38:15.865Z,1011.51
2017-06-05T06:39:25.788Z,1011.49
2017-06-05T06:40:35.722Z,1011.5
2017-06-05T06:41:45.470Z,1011.51
2017-06-05T06:42:56.121Z,1011.49
2017-06-05T06:44:06.035Z,1011.48
2017-06-05T06:45:15.956Z,1011.47
2017-06-05T06:46:25.874Z,1011.44
2017-06-05T06:47:35.254Z,1011.45
2017-06-05T06:48:45.466Z,1011.43
2017-06-05T06:49:55.069Z,1011.44
2017-06-05T06:51:04.982Z,1011.39
2017-06-05T06:52:14.592Z,1011.37
2017-06-05T06:53:24.625Z,1011.38
2017-06-05T06:54:34.238Z,1011.39
2017-06-05T06:55:44.443Z,1011.34
2017-06-05T06:56:54.654Z,1011.34
2017-06-05T06:58:04.571Z,1011.33
2017-06-05T06:59:14.281Z,1011.36
2017-06-05T07:00:24.179Z,1011.36
2017-06-05T07:01:34.082Z,1011.31
2017-06-05T07:02:43.986Z,1011.3
2017-06-05T07:03:53.577Z,1011.36
2017-06-05T07:05:03.327Z,1011.33
2017-06-05T07:06:13.231Z,1011.32
2017-06-05T07:07:22.835Z,1011.33
2017-06-05T07:08:32.429Z,1011.35
2017-06-05T07:09:42.639Z,1011.33
2017-06-05T07:10:52.546Z,1011.3
2017-06-05T07:12:02.454Z,1011.32
2017-06-05T07:13:12.050Z,1011.29
2017-06-05T07:14:21.945Z,1011.29
2017-06-05T07:15:31.861Z,1011.26
2017-06-05T07:16:41.471Z,1011.26
2017-06-05T07:17:51.089Z,1011.25
2017-06-05T07:19:01.364Z,1011.24
2017-06-05T07:20:10.963Z,1011.26
2017-06-05T07:21:20.862Z,1011.25
2017-06-05T07:22:31.082Z,1011.26
2017-06-05T07:23:40.718Z,1011.29
2017-06-05T07:24:50.639Z,1011.26
2017-06-05T07:26:00.854Z,1011.26
2017-06-05T07:27:10.450Z,1011.25
2017-06-05T07:28:20.816Z,1011.22
2017-06-05T07:29:31.038Z,1011.21
2017-06-05T07:30:40.961Z,1011.19
2017-06-05T07:31:50.281Z,1011.18
2017-06-05T07:33:00.510Z,1011.2
2017-06-05T07:34:10.269Z,1011.22
2017-06-05T07:35:20.186Z,1011.16
2017-06-05T07:36:30.400Z,1011.19
2017-06-05T07:37:40.022Z,1011.23
2017-06-05T07:38:49.630Z,1011.23
2017-06-05T07:39:59.654Z,1011.26
2017-06-05T07:41:09.883Z,1011.2
2017-06-05T07:42:19.202Z,1011.19
2017-06-05T07:43:28.814Z,1011.15
2017-06-05T07:44:39.040Z,1011.16
2017-06-05T07:45:49.427Z,1011.11
2017-06-05T07:46:59.395Z,1011.16
2017-06-05T07:48:09.612Z,1011.07
2017-06-05T07:49:19.538Z,1011.09
2017-06-05T07:50:29.163Z,1011
2017-06-05T07:51:39.496Z,1011.03
2017-06-05T07:52:49.112Z,1011.05
2017-06-05T07:53:59.340Z,1011.02
2017-06-05T07:55:08.942Z,1011.01
2017-06-05T07:56:17.961Z,1011
2017-06-05T07:57:28.189Z,1011
2017-06-05T07:58:38.423Z,1010.94
2017-06-05T07:59:48.039Z,1010.95
2017-06-05T08:00:58.009Z,1010.95
2017-06-05T08:02:07.916Z,1010.95
2017-06-05T08:03:18.173Z,1010.98
2017-06-05T08:04:28.087Z,1010.92
2017-06-05T08:05:38.304Z,1010.89
2017-06-05T08:06:48.525Z,1010.87
2017-06-05T08:07:58.745Z,1010.92
2017-06-05T08:09:08.668Z,1010.87
2017-06-05T08:10:18.925Z,1010.86
2017-06-05T08:11:28.854Z,1010.85
2017-06-05T08:12:38.457Z,1010.8
2017-06-05T08:13:48.367Z,1010.81
2017-06-05T08:14:57.980Z,1010.79
2017-06-05T08:16:07.923Z,1010.8
2017-06-05T08:17:17.867Z,1010.8
2017-06-05T08:18:27.480Z,1010.71
2017-06-05T08:19:37.454Z,1010.76
2017-06-05T08:20:48.178Z,1010.73
2017-06-05T08:21:57.862Z,1010.72
2017-06-05T08:23:07.966Z,1010.72
2017-06-05T08:24:17.002Z,1010.7
2017-06-05T08:25:27.001Z,1010.74
2017-06-05T08:26:37.099Z,1010.7
2017-06-05T08:27:47.340Z,1010.69
2017-06-05T08:28:57.290Z,1010.68
2017-06-05T08:30:07.540Z,1010.68
2017-06-05T08:31:17.766Z,1010.69
2017-06-05T08:32:27.758Z,1010.67
2017-06-05T08:33:37.704Z,1010.68
2017-06-05T08:34:47.660Z,1010.63
2017-06-05T08:35:57.911Z,1010.61
2017-06-05T08:37:07.857Z,1010.63
2017-06-05T08:38:17.615Z,1010.66
2017-06-05T08:39:27.828Z,1010.64
2017-06-05T08:40:38.351Z,1010.59
2017-06-05T08:41:51.495Z,1010.5
2017-06-05T08:43:04.730Z,1010.51
2017-06-05T08:44:17.541Z,1010.47
2017-06-05T08:45:27.765Z,1010.47
2017-06-05T08:46:37.714Z,1010.45
2017-06-05T08:47:47.897Z,1010.42
2017-06-05T08:48:57.539Z,1010.4
2017-06-05T08:50:07.191Z,1010.38
2017-06-05T08:51:16.839Z,1010.34
2017-06-05T08:52:26.504Z,1010.34
2017-06-05T08:53:36.430Z,1010.33
2017-06-05T08:54:46.372Z,1010.36
2017-06-05T08:55:56.314Z,1010.34
2017-06-05T08:57:06.566Z,1010.37
2017-06-05T08:58:16.798Z,1010.33
2017-06-05T08:59:26.730Z,1010.36
2017-06-05T09:00:36.094Z,1010.38
2017-06-05T09:01:46.734Z,1010.37
2017-06-05T09:02:56.950Z,1010.36
2017-06-05T09:04:07.198Z,1010.34
2017-06-05T09:05:16.817Z,1010.29
2017-06-05T09:06:27.081Z,1010.24
2017-06-05T09:07:37.172Z,1010.27
2017-06-05T09:08:46.822Z,1010.2
2017-06-05T09:09:56.770Z,1010.18
2017-06-05T09:11:06.725Z,1010.17
2017-06-05T09:12:16.667Z,1010.19
2017-06-05T09:13:26.702Z,1010.15
2017-06-05T09:14:36.327Z,1010.15
2017-06-05T09:15:45.988Z,1010.15
2017-06-05T09:16:55.372Z,1010.1
2017-06-05T09:18:05.335Z,1010.09
2017-06-05T09:19:15.280Z,1010.08
2017-06-05T09:20:25.220Z,1010.08
2017-06-05T09:21:35.207Z,1010.04
2017-06-05T09:22:45.143Z,1010.03
2017-06-05T09:23:54.810Z,1010.08
2017-06-05T09:25:05.203Z,1010.03
2017-06-05T09:26:15.131Z,1010.08
2017-06-05T09:27:25.081Z,1010.06
2017-06-05T09:28:35.030Z,1010
2017-06-05T09:29:45.298Z,1010.01
2017-06-05T09:30:55.238Z,1009.99
2017-06-05T09:32:05.466Z,1009.98
2017-06-05T09:33:15.405Z,1009.93
2017-06-05T09:34:25.310Z,1009.9
2017-06-05T09:35:35.556Z,1009.9
2017-06-05T09:36:44.856Z,1009.94
2017-06-05T09:37:54.458Z,1009.97
2017-06-05T09:39:04.362Z,1009.95
2017-06-05T09:40:13.970Z,1009.96
2017-06-05T09:41:23.603Z,1009.98
2017-06-05T09:42:33.817Z,1009.98
2017-06-05T09:43:43.760Z,1009.95
2017-06-05T09:44:53.658Z,1009.97
2017-06-05T09:46:03.564Z,1009.94
2017-06-05T09:47:13.163Z,1009.94
2017-06-05T09:48:23.118Z,1009.92
2017-06-05T09:49:32.704Z,1009.85
2017-06-05T09:50:42.624Z,1009.86
2017-06-05T09:51:52.553Z,1009.85
2017-06-05T09:53:02.154Z,1009.86
2017-06-05T09:54:12.361Z,1009.79
2017-06-05T09:55:22.005Z,1009.79
2017-06-05T09:56:31.635Z,1009.79
2017-06-05T09:57:41.585Z,1009.7
2017-06-05T09:58:51.221Z,1009.71
2017-06-05T10:00:01.034Z,1009.68
2017-06-05T10:01:11.259Z,1009.68
2017-06-05T10:02:20.882Z,1009.67
2017-06-05T10:03:31.113Z,1009.69
2017-06-05T10:04:41.026Z,1009.63
2017-06-05T10:05:50.960Z,1009.68
2017-06-05T10:07:00.882Z,1009.67
2017-06-05T10:08:11.108Z,1009.69
2017-06-05T10:09:21.046Z,1009.68
2017-06-05T10:10:30.945Z,1009.74
2017-06-05T10:11:40.987Z,1009.7
2017-06-05T10:12:51.219Z,1009.68
2017-06-05T10:14:01.457Z,1009.66
2017-06-05T10:15:11.416Z,1009.67
2017-06-05T10:16:21.321Z,1009.67
2017-06-05T10:17:31.583Z,1009.67
2017-06-05T10:18:41.186Z,1009.67
2017-06-05T10:19:50.798Z,1009.62
2017-06-05T10:21:00.430Z,1009.65
2017-06-05T10:22:10.069Z,1009.69
2017-06-05T10:23:20.161Z,1009.66
2017-06-05T10:24:30.080Z,1009.69
2017-06-05T10:25:39.692Z,1009.61
2017-06-05T10:26:49.601Z,1009.62
2017-06-05T10:27:59.516Z,1009.57
2017-06-05T10:29:08.996Z,1009.59
2017-06-05T10:30:18.601Z,1009.57
2017-06-05T10:31:28.506Z,1009.54
2017-06-05T10:32:38.723Z,1009.52
2017-06-05T10:33:48.630Z,1009.48
2017-06-05T10:34:58.682Z,1009.39
2017-06-05T10:36:08.593Z,1009.41
2017-06-05T10:37:18.516Z,1009.38
2017-06-05T10:38:28.438Z,1009.37
2017-06-05T10:39:37.726Z,1009.35
2017-06-05T10:40:47.744Z,1009.41
2017-06-05T10:41:57.950Z,1009.39
2017-06-05T10:43:07.553Z,1009.34
2017-06-05T10:44:17.762Z,1009.35
2017-06-05T10:45:27.357Z,1009.35
2017-06-05T10:46:37.885Z,1009.34
2017-06-05T10:47:47.820Z,1009.33
2017-06-05T10:48:57.725Z,1009.33
2017-06-05T10:50:07.343Z,1009.32
2017-06-05T10:51:17.300Z,1009.3
2017-06-05T10:52:27.300Z,1009.28
2017-06-05T10:53:36.930Z,1009.27
2017-06-05T10:54:46.843Z,1009.27
2017-06-05T10:55:57.061Z,1009.22
2017-06-05T10:57:06.960Z,1009.24
2017-06-05T10:58:17.402Z,1009.19
2017-06-05T10:59:27.022Z,1009.18
2017-06-05T11:00:36.922Z,1009.15
2017-06-05T11:01:47.155Z,1009.13
2017-06-05T11:02:57.082Z,1009.16
2017-06-05T11:04:06.679Z,1009.13
2017-06-05T11:05:16.281Z,1009.09
2017-06-05T11:06:26.189Z,1009.06
2017-06-05T11:07:36.402Z,1009.07
2017-06-05T11:08:46.312Z,1009.02
2017-06-05T11:09:56.572Z,1008.96
2017-06-05T11:11:06.474Z,1008.98
2017-06-05T11:12:16.727Z,1009.01
2017-06-05T11:13:26.332Z,1008.99
2017-06-05T11:14:36.267Z,1009.02
2017-06-05T11:15:46.482Z,1009.06
2017-06-05T11:16:56.404Z,1009.03
2017-06-05T11:18:06.018Z,1008.98
2017-06-05T11:19:15.917Z,1008.95
2017-06-05T11:20:25.526Z,1008.89
2017-06-05T11:21:35.174Z,1008.84
2017-06-05T11:22:45.090Z,1008.82
2017-06-05T11:23:55.037Z,1008.85
2017-06-05T11:25:04.629Z,1008.84
2017-06-05T11:26:14.527Z,1008.87
2017-06-05T11:27:24.144Z,1008.87
2017-06-05T11:28:34.375Z,1008.88
2017-06-05T11:29:44.592Z,1008.84
2017-06-05T11:30:54.511Z,1008.84
2017-06-05T11:32:04.438Z,1008.83
2017-06-05T11:33:14.493Z,1008.82
2017-06-05T11:34:24.419Z,1008.82
2017-06-05T11:35:34.325Z,1008.8
2017-06-05T11:36:44.269Z,1008.77
2017-06-05T11:37:54.479Z,1008.81
2017-06-05T11:39:04.399Z,1008.83
2017-06-05T11:40:14.318Z,1008.78
2017-06-05T11:41:24.241Z,1008.75
2017-06-05T11:42:34.525Z,1008.78
2017-06-05T11:43:44.743Z,1008.7
2017-06-05T11:44:54.146Z,1008.66
2017-06-05T11:46:04.073Z,1008.69
2017-06-05T11:47:13.973Z,1008.68
2017-06-05T11:48:23.888Z,1008.63
2017-06-05T11:49:34.101Z,1008.66
2017-06-05T11:50:44.010Z,1008.65
2017-06-05T11:51:54.213Z,1008.64
2017-06-05T11:53:04.431Z,1008.62
2017-06-05T11:54:13.729Z,1008.6
2017-06-05T11:55:23.322Z,1008.58
2017-06-05T11:56:32.754Z,1008.57
2017-06-05T11:57:42.363Z,1008.56
2017-06-05T11:58:52.259Z,1008.55
2017-06-05T12:00:01.549Z,1008.52
2017-06-05T12:01:11.450Z,1008.48
2017-06-05T12:02:21.704Z,1008.5
2017-06-05T12:03:31.002Z,1008.46
2017-06-05T12:04:40.921Z,1008.42
2017-06-05T12:05:50.859Z,1008.37
2017-06-05T12:07:01.085Z,1008.41
2017-06-05T12:08:10.997Z,1008.36
2017-06-05T12:09:20.609Z,1008.38
2017-06-05T12:10:30.527Z,1008.42
2017-06-05T12:11:40.737Z,1008.39
2017-06-05T12:12:50.053Z,1008.34
2017-06-05T12:14:00.104Z,1008.34
2017-06-05T12:15:09.698Z,1008.34
2017-06-05T12:16:19.052Z,1008.31
2017-06-05T12:17:28.395Z,1008.31
2017-06-05T12:18:37.693Z,1008.25
2017-06-05T12:19:48.252Z,1008.29
2017-06-05T12:20:57.845Z,1008.28
2017-06-05T12:22:07.777Z,1008.27
2017-06-05T12:23:17.716Z,1008.25
2017-06-05T12:24:27.323Z,1008.26
2017-06-05T12:25:37.244Z,1008.23
2017-06-05T12:26:47.171Z,1008.24
2017-06-05T12:27:56.773Z,1008.24
2017-06-05T12:29:06.052Z,1008.21
2017-06-05T12:30:15.048Z,1008.24
2017-06-05T12:31:25.101Z,1008.25
2017-06-05T12:32:35.013Z,1008.25
2017-06-05T12:33:44.606Z,1008.3
2017-06-05T12:34:54.214Z,1008.28
2017-06-05T12:36:03.839Z,1008.24
2017-06-05T12:37:13.796Z,1008.22
2017-06-05T12:38:23.381Z,1008.25
2017-06-05T12:39:33.594Z,1008.23
2017-06-05T12:40:43.514Z,1008.22
2017-06-05T12:41:53.409Z,1008.18
2017-06-05T12:43:03.462Z,1008.21
2017-06-05T12:44:13.383Z,1008.19
2017-06-05T12:45:23.299Z,1008.23
2017-06-05T12:46:32.904Z,1008.22
2017-06-05T12:47:42.507Z,1008.18
2017-06-05T12:48:52.759Z,1008.17
2017-06-05T12:50:02.969Z,1008.18
2017-06-05T12:51:12.557Z,1008.16
2017-06-05T12:52:22.490Z,1008.16
2017-06-05T12:53:32.696Z,1008.11
2017-06-05T12:54:42.763Z,1008.15
2017-06-05T12:55:52.706Z,1008.14
2017-06-05T12:57:02.612Z,1008.11
2017-06-05T12:58:12.519Z,1008.08
2017-06-05T12:59:22.137Z,1008.12
2017-06-05T13:00:32.345Z,1008.09
2017-06-05T13:01:42.578Z,1008.1
2017-06-05T13:02:52.502Z,1008.06
2017-06-05T13:04:02.094Z,1008.07
2017-06-05T13:05:12.303Z,1008.04
2017-06-05T13:06:22.066Z,1008.04
2017-06-05T13:07:31.978Z,1008.02
2017-06-05T13:08:42.187Z,1008.04
2017-06-05T13:09:52.419Z,1008.03
2017-06-05T13:11:02.025Z,1007.99
2017-06-05T13:12:12.038Z,1007.99
2017-06-05T13:13:21.940Z,1007.93
2017-06-05T13:14:31.545Z,1007.82
2017-06-05T13:15:41.152Z,1007.84
2017-06-05T13:16:51.365Z,1007.82
2017-06-05T13:18:01.640Z,1007.79
2017-06-05T13:19:11.591Z,1007.77
2017-06-05T13:20:21.204Z,1007.79
2017-06-05T13:21:31.115Z,1007.79
2017-06-05T13:22:40.738Z,1007.78
2017-06-05T13:23:50.699Z,1007.77
2017-06-05T13:25:00.001Z,1007.76
2017-06-05T13:26:09.899Z,1007.72
2017-06-05T13:27:19.818Z,1007.71
2017-06-05T13:28:29.416Z,1007.75
2017-06-05T13:29:39.435Z,1007.73
2017-06-05T13:30:49.049Z,1007.72
2017-06-05T13:31:59.274Z,1007.71
2017-06-05T13:33:09.504Z,1007.68
2017-06-05T13:34:18.796Z,1007.65
2017-06-05T13:35:28.546Z,1007.65
2017-06-05T13:36:38.152Z,1007.58
2017-06-05T13:37:48.081Z,1007.56
2017-06-05T13:38:57.686Z,1007.57
2017-06-05T13:40:07.587Z,1007.62
2017-06-05T13:41:16.970Z,1007.54
2017-06-05T13:42:26.564Z,1007.52
2017-06-05T13:43:36.474Z,1007.56
2017-06-05T13:44:46.364Z,1007.5
2017-06-05T13:45:55.982Z,1007.49
2017-06-05T13:47:06.070Z,1007.47
2017-06-05T13:48:15.697Z,1007.47
2017-06-05T13:49:25.924Z,1007.48
2017-06-05T13:50:36.221Z,1007.42
2017-06-05T13:51:46.441Z,1007.42
2017-06-05T13:52:56.811Z,1007.44
2017-06-05T13:54:06.411Z,1007.4
2017-06-05T13:55:16.616Z,1007.36
2017-06-05T13:56:26.533Z,1007.38
2017-06-05T13:57:36.751Z,1007.33
2017-06-05T13:58:47.110Z,1007.32
2017-06-05T13:59:57.323Z,1007.34
2017-06-05T14:01:07.238Z,1007.29
2017-06-05T14:02:17.152Z,1007.3
2017-06-05T14:03:27.372Z,1007.28
2017-06-05T14:04:37.623Z,1007.28
2017-06-05T14:05:47.835Z,1007.27
2017-06-05T14:06:58.052Z,1007.24
2017-06-05T14:08:07.966Z,1007.24